createdAt,value
2019-02-27T00:00:59.969Z,23.40
2019-02-27T00:06:06.329Z,20.90
2019-02-27T00:11:13.009Z,17.87
2019-02-27T00:16:19.339Z,17.98
2019-02-27T00:21:25.584Z,19.87
2019-02-27T00:26:31.790Z,20.00
2019-02-27T00:31:38.071Z,17.92
2019-02-27T00:36:45.178Z,16.50
2019-02-27T00:41:54.130Z,16.60
2019-02-27T00:47:00.130Z,18.73
2019-02-27T00:52:06.454Z,17.90
2019-02-27T00:57:12.464Z,16.23
2019-02-27T01:02:20.285Z,16.55
2019-02-27T01:07:26.787Z,15.15
2019-02-27T01:12:32.924Z,14.80
2019-02-27T01:17:39.001Z,14.98
2019-02-27T01:22:45.128Z,14.87
2019-02-27T01:27:51.205Z,14.93
2019-02-27T01:32:57.684Z,14.73
2019-02-27T01:38:05.312Z,14.70
2019-02-27T01:43:11.627Z,14.30
2019-02-27T01:48:19.967Z,13.48
2019-02-27T01:53:26.006Z,13.40
2019-02-27T01:58:32.226Z,12.63
2019-02-27T02:03:38.471Z,13.20
2019-02-27T02:08:48.002Z,17.32
2019-02-27T02:14:08.970Z,25.97
2019-02-27T02:19:39.620Z,13.28
2019-02-27T02:25:21.256Z,14.83
2019-02-27T02:31:05.607Z,19.57
2019-02-27T02:36:42.399Z,21.68
2019-02-27T02:42:10.713Z,12.95
2019-02-27T02:47:56.971Z,18.87
2019-02-27T02:53:33.914Z,12.82
2019-02-27T02:59:27.128Z,13.53
2019-02-27T03:10:43.976Z,12.78
2019-02-27T03:16:11.050Z,12.63
2019-02-27T03:21:55.448Z,12.88
2019-02-27T03:27:33.174Z,12.10
2019-02-27T03:33:23.264Z,12.20
2019-02-27T03:38:51.591Z,12.37
2019-02-27T03:44:38.437Z,12.65
2019-02-27T03:50:25.214Z,12.18
2019-02-27T03:56:26.746Z,12.45
2019-02-27T04:02:05.840Z,13.53
2019-02-27T04:07:45.560Z,14.45
2019-02-27T04:12:52.425Z,13.65
2019-02-27T04:17:56.490Z,13.08
2019-02-27T04:23:02.721Z,13.28
2019-02-27T04:28:08.821Z,12.95
2019-02-27T04:33:14.658Z,12.15
2019-02-27T04:38:20.859Z,11.93
2019-02-27T04:43:32.000Z,12.20
2019-02-27T04:48:35.242Z,11.83
2019-02-27T04:53:41.408Z,12.20
2019-02-27T04:58:47.489Z,14.80
2019-02-27T05:03:53.545Z,13.80
2019-02-27T05:09:00.132Z,13.75
2019-02-27T05:14:07.095Z,12.35
2019-02-27T05:19:15.163Z,11.00
2019-02-27T05:24:20.963Z,12.30
2019-02-27T05:29:27.131Z,11.70
2019-02-27T05:34:33.141Z,12.05
2019-02-27T05:39:39.626Z,10.90
2019-02-27T05:44:45.814Z,13.68
2019-02-27T05:49:52.007Z,11.95
2019-02-27T05:54:58.380Z,11.93
2019-02-27T06:00:04.693Z,12.43
2019-02-27T06:05:10.882Z,14.33
2019-02-27T06:10:19.739Z,19.73
2019-02-27T06:15:26.059Z,19.77
2019-02-27T06:20:32.756Z,23.22
2019-02-27T06:25:38.758Z,17.17
2019-02-27T06:30:44.850Z,16.50
2019-02-27T06:35:51.081Z,19.65
2019-02-27T06:40:59.267Z,16.75
2019-02-27T06:46:05.177Z,12.90
2019-02-27T06:51:11.384Z,12.68
2019-02-27T06:56:17.647Z,11.85
2019-02-27T07:01:23.878Z,12.28
2019-02-27T07:06:29.946Z,12.78
2019-02-27T07:11:35.979Z,13.28
2019-02-27T07:16:42.075Z,14.83
2019-02-27T07:21:48.324Z,18.90
2019-02-27T07:26:54.815Z,20.68
2019-02-27T07:32:01.026Z,26.55
2019-02-27T07:37:07.183Z,35.13
2019-02-27T07:42:13.245Z,31.75
2019-02-27T07:47:19.530Z,30.68
2019-02-27T07:52:25.768Z,30.62
2019-02-27T07:57:32.076Z,31.75
2019-02-27T08:02:38.430Z,29.45
2019-02-27T08:07:48.621Z,30.50
2019-02-27T08:12:55.592Z,26.27
2019-02-27T08:18:00.441Z,62.53
2019-02-27T08:23:06.997Z,27.40
2019-02-27T08:28:13.397Z,20.10
2019-02-27T08:33:19.584Z,19.65
2019-02-27T08:38:25.770Z,14.33
2019-02-27T08:43:31.847Z,12.80
2019-02-27T08:48:37.982Z,13.25
2019-02-27T08:53:44.205Z,13.38
2019-02-27T08:58:50.626Z,13.03
2019-02-27T09:03:56.984Z,13.28
2019-02-27T09:09:04.700Z,12.40
2019-02-27T09:14:11.998Z,12.63
2019-02-27T09:19:18.089Z,12.85
2019-02-27T09:24:24.307Z,12.33
2019-02-27T09:29:30.685Z,12.43
2019-02-27T09:34:36.791Z,12.55
2019-02-27T09:39:42.992Z,12.63
2019-02-27T09:44:49.256Z,12.45
2019-02-27T09:49:55.564Z,12.20
2019-02-27T09:55:01.726Z,13.00
2019-02-27T10:00:26.685Z,12.15
2019-02-27T10:05:36.294Z,11.60
2019-02-27T10:10:44.953Z,11.08
2019-02-27T10:15:49.090Z,10.55
2019-02-27T10:20:55.315Z,10.50
2019-02-27T10:26:01.283Z,11.03
2019-02-27T10:31:07.434Z,9.90
2019-02-27T10:36:13.823Z,9.10
2019-02-27T10:41:19.850Z,9.15
2019-02-27T10:46:26.299Z,9.85
2019-02-27T10:51:32.300Z,7.60
2019-02-27T10:56:38.163Z,7.25
2019-02-27T11:01:44.054Z,7.03
2019-02-27T11:06:50.115Z,5.53
2019-02-27T11:11:56.351Z,6.67
2019-02-27T11:17:03.430Z,4.28
2019-02-27T11:22:09.670Z,4.53
2019-02-27T11:27:16.866Z,3.87
2019-02-27T11:32:23.828Z,4.33
2019-02-27T11:37:29.875Z,4.65
2019-02-27T11:42:35.766Z,6.08
2019-02-27T11:47:44.688Z,8.28
2019-02-27T11:52:49.514Z,8.30
2019-02-27T11:57:55.816Z,8.23
2019-02-27T12:03:02.019Z,10.90
2019-02-27T12:08:08.077Z,10.82
2019-02-27T12:13:14.273Z,13.75
2019-02-27T12:18:20.130Z,13.55
2019-02-27T12:23:25.977Z,13.40
2019-02-27T12:28:32.056Z,15.30
2019-02-27T12:33:38.184Z,15.18
2019-02-27T12:38:44.363Z,15.13
2019-02-27T12:43:52.742Z,14.50
2019-02-27T12:48:59.014Z,13.48
2019-02-27T12:54:05.693Z,17.52
2019-02-27T12:59:11.886Z,15.63
2019-02-27T13:04:19.960Z,15.23
2019-02-27T13:09:25.894Z,16.60
2019-02-27T13:14:33.355Z,15.78
2019-02-27T13:19:39.338Z,16.75
2019-02-27T13:24:47.046Z,16.05
2019-02-27T13:29:56.598Z,16.17
2019-02-27T13:35:00.292Z,13.90
2019-02-27T13:40:08.074Z,14.15
2019-02-27T13:45:16.376Z,15.15
2019-02-27T13:50:25.679Z,15.35
2019-02-27T13:55:29.957Z,16.55
2019-02-27T14:00:36.125Z,16.57
2019-02-27T14:05:42.353Z,15.13
2019-02-27T14:10:50.483Z,10.93
2019-02-27T14:15:58.086Z,9.00
2019-02-27T14:21:03.484Z,8.75
2019-02-27T14:26:09.946Z,10.05
2019-02-27T14:31:15.811Z,10.03
2019-02-27T14:36:21.662Z,8.95
2019-02-27T14:41:27.506Z,8.30
2019-02-27T14:46:34.644Z,10.60
2019-02-27T14:51:41.147Z,10.03
2019-02-27T14:56:49.447Z,8.95
2019-02-27T15:01:55.202Z,7.80
2019-02-27T15:07:01.144Z,8.03
2019-02-27T15:12:06.998Z,9.43
2019-02-27T15:17:12.867Z,9.48
2019-02-27T15:22:20.545Z,8.50
2019-02-27T15:27:26.270Z,7.00
2019-02-27T15:32:32.121Z,5.70
2019-02-27T15:37:38.046Z,5.25
2019-02-27T15:42:43.965Z,5.10
2019-02-27T15:47:50.213Z,4.50
2019-02-27T15:52:56.350Z,3.80
2019-02-27T15:58:02.652Z,3.30
2019-02-27T16:03:11.767Z,3.20
2019-02-27T16:08:17.274Z,3.90
2019-02-27T16:13:23.400Z,3.95
2019-02-27T16:18:29.392Z,3.55
2019-02-27T16:23:37.430Z,3.90
2019-02-27T16:28:46.118Z,4.08
2019-02-27T16:33:51.616Z,4.17
2019-02-27T16:38:57.735Z,4.45
2019-02-27T16:44:04.147Z,4.10
2019-02-27T16:49:10.901Z,4.30
2019-02-27T16:54:19.187Z,4.10
2019-02-27T16:59:25.441Z,4.35
2019-02-27T17:04:33.969Z,4.70
2019-02-27T17:09:41.010Z,4.42
2019-02-27T17:14:48.983Z,4.20
2019-02-27T17:19:55.516Z,4.87
2019-02-27T17:25:01.967Z,5.10
2019-02-27T17:30:12.277Z,5.28
2019-02-27T17:35:20.510Z,5.30
2019-02-27T17:40:26.406Z,5.08
2019-02-27T17:45:32.796Z,5.12
2019-02-27T17:50:39.145Z,5.08
2019-02-27T17:55:45.510Z,5.10
2019-02-27T18:00:54.248Z,5.00
2019-02-27T18:06:00.849Z,5.17
2019-02-27T18:11:07.183Z,4.95
2019-02-27T18:16:13.505Z,5.28
2019-02-27T18:21:19.714Z,6.40
2019-02-27T18:26:26.054Z,5.40
2019-02-27T18:31:32.340Z,7.00
2019-02-27T18:36:42.879Z,6.17
2019-02-27T18:41:46.497Z,8.15
2019-02-27T18:46:52.776Z,8.18
2019-02-27T18:51:59.363Z,7.28
2019-02-27T18:57:05.982Z,6.90
2019-02-27T19:02:12.554Z,7.00
2019-02-27T19:07:20.218Z,8.00
2019-02-27T19:12:28.669Z,8.18
2019-02-27T19:17:35.022Z,9.03
2019-02-27T19:22:42.902Z,8.95
2019-02-27T19:27:50.559Z,9.35
2019-02-27T19:33:01.598Z,9.75
2019-02-27T19:38:04.964Z,10.68
2019-02-27T19:43:11.363Z,10.30
2019-02-27T19:48:17.579Z,10.40
2019-02-27T19:53:23.662Z,11.93
2019-02-27T19:58:29.935Z,12.25
2019-02-27T20:03:36.131Z,11.22
2019-02-27T20:08:45.390Z,11.73
2019-02-27T20:13:50.353Z,12.70
2019-02-27T20:18:56.610Z,13.13
2019-02-27T20:24:02.724Z,13.13
2019-02-27T20:29:08.988Z,11.63
2019-02-27T20:34:15.361Z,11.35
2019-02-27T20:39:23.179Z,12.20
2019-02-27T20:44:29.874Z,12.53
2019-02-27T20:49:36.095Z,12.43
2019-02-27T20:54:42.279Z,12.70
2019-02-27T20:59:48.529Z,13.45
2019-02-27T21:04:54.774Z,12.55
2019-02-27T21:10:00.821Z,12.43
2019-02-27T21:15:07.145Z,12.50
2019-02-27T21:20:13.556Z,12.93
2019-02-27T21:25:20.152Z,12.60
2019-02-27T21:30:26.561Z,12.75
2019-02-27T21:35:32.702Z,12.40
2019-02-27T21:40:38.981Z,12.20
2019-02-27T21:45:45.313Z,12.58
2019-02-27T21:50:51.512Z,12.58
2019-02-27T21:55:57.751Z,11.75
2019-02-27T22:01:04.046Z,12.53
2019-02-27T22:06:10.271Z,12.37
2019-02-27T22:11:16.458Z,11.25
2019-02-27T22:16:22.821Z,11.57
2019-02-27T22:21:31.334Z,10.90
2019-02-27T22:26:37.406Z,10.88
2019-02-27T22:31:44.350Z,10.65
2019-02-27T22:36:50.637Z,12.40
2019-02-27T22:41:56.654Z,11.95
2019-02-27T22:47:02.794Z,11.28
2019-02-27T22:52:09.132Z,12.28
2019-02-27T22:57:15.441Z,12.40
2019-02-27T23:02:23.880Z,12.23
2019-02-27T23:07:30.210Z,11.65
2019-02-27T23:12:39.497Z,12.60
2019-02-27T23:17:44.238Z,11.15
2019-02-27T23:22:50.588Z,12.95
2019-02-27T23:27:57.568Z,12.65
2019-02-27T23:33:04.607Z,11.63
2019-02-27T23:38:10.866Z,12.25
2019-02-27T23:43:17.118Z,11.38
2019-02-27T23:48:23.174Z,11.22
2019-02-27T23:53:29.597Z,12.20
2019-02-27T23:58:35.679Z,11.35
